sensor_id;sensor_type;location;lat;lon;timestamp;pressure;altitude;pressure_sealevel;temperature;humidity
56070;BME280;41944;52.078;-0.058;2023-04-21T00:01:26;101571.14;;;7.19;99.64
56070;BME280;41944;52.078;-0.058;2023-04-21T00:03:53;101569.21;;;7.22;100.00
56070;BME280;41944;52.078;-0.058;2023-04-21T00:06:21;101564.17;;;7.19;99.75
56070;BME280;41944;52.078;-0.058;2023-04-21T00:08:48;101569.88;;;7.12;100.00
56070;BME280;41944;52.078;-0.058;2023-04-21T00:11:15;101569.29;;;7.15;100.00
56070;BME280;41944;52.078;-0.058;2023-04-21T00:13:42;101571.71;;;7.33;100.00
56070;BME280;41944;52.078;-0.058;2023-04-21T00:16:10;101578.65;;;7.54;97.69
56070;BME280;41944;52.078;-0.058;2023-04-21T00:18:37;101573.75;;;7.41;98.27
56070;BME280;41944;52.078;-0.058;2023-04-21T00:21:04;101573.91;;;7.50;98.20
56070;BME280;41944;52.078;-0.058;2023-04-21T00:23:31;101569.01;;;7.49;97.88
56070;BME280;41944;52.078;-0.058;2023-04-21T00:25:58;101561.58;;;7.44;98.83
56070;BME280;41944;52.078;-0.058;2023-04-21T00:28:26;101554.39;;;7.46;98.54
56070;BME280;41944;52.078;-0.058;2023-04-21T00:30:53;101555.24;;;7.57;98.20
56070;BME280;41944;52.078;-0.058;2023-04-21T00:33:20;101546.49;;;7.42;98.56
56070;BME280;41944;52.078;-0.058;2023-04-21T00:35:47;101548.32;;;7.43;99.16
56070;BME280;41944;52.078;-0.058;2023-04-21T00:38:14;101541.34;;;7.31;100.00
56070;BME280;41944;52.078;-0.058;2023-04-21T00:40:41;101538.52;;;7.27;100.00
56070;BME280;41944;52.078;-0.058;2023-04-21T00:43:08;101534.44;;;7.34;99.91
56070;BME280;41944;52.078;-0.058;2023-04-21T00:45:36;101530.53;;;7.34;100.00
56070;BME280;41944;52.078;-0.058;2023-04-21T00:48:03;101530.23;;;7.36;99.70
56070;BME280;41944;52.078;-0.058;2023-04-21T00:50:31;101526.78;;;7.26;99.45
56070;BME280;41944;52.078;-0.058;2023-04-21T00:52:59;101526.55;;;7.34;99.46
56070;BME280;41944;52.078;-0.058;2023-04-21T00:55:26;101515.61;;;7.17;100.00
56070;BME280;41944;52.078;-0.058;2023-04-21T00:57:54;101506.88;;;7.23;99.95
56070;BME280;41944;52.078;-0.058;2023-04-21T01:00:21;101504.57;;;7.31;99.97
56070;BME280;41944;52.078;-0.058;2023-04-21T01:02:48;101499.02;;;7.27;99.73
56070;BME280;41944;52.078;-0.058;2023-04-21T01:05:16;101494.04;;;7.23;99.97
56070;BME280;41944;52.078;-0.058;2023-04-21T01:07:43;101498.92;;;7.35;99.25
56070;BME280;41944;52.078;-0.058;2023-04-21T01:10:10;101496.43;;;7.36;98.73
56070;BME280;41944;52.078;-0.058;2023-04-21T01:12:42;101493.14;;;7.17;99.57
56070;BME280;41944;52.078;-0.058;2023-04-21T01:15:10;101485.93;;;6.83;100.00
56070;BME280;41944;52.078;-0.058;2023-04-21T01:17:37;101486.95;;;6.86;100.00
56070;BME280;41944;52.078;-0.058;2023-04-21T01:20:09;101483.94;;;6.83;100.00
56070;BME280;41944;52.078;-0.058;2023-04-21T01:22:37;101483.23;;;6.90;100.00
56070;BME280;41944;52.078;-0.058;2023-04-21T01:25:05;101481.93;;;6.91;100.00
56070;BME280;41944;52.078;-0.058;2023-04-21T01:27:33;101480.66;;;6.89;100.00
56070;BME280;41944;52.078;-0.058;2023-04-21T01:30:00;101482.14;;;6.93;100.00
56070;BME280;41944;52.078;-0.058;2023-04-21T01:32:28;101479.15;;;7.07;100.00
56070;BME280;41944;52.078;-0.058;2023-04-21T01:34:57;101475.88;;;7.11;100.00
56070;BME280;41944;52.078;-0.058;2023-04-21T01:37:28;101471.81;;;7.34;100.00
56070;BME280;41944;52.078;-0.058;2023-04-21T01:39:58;101470.31;;;7.37;100.00
56070;BME280;41944;52.078;-0.058;2023-04-21T01:42:27;101463.21;;;7.41;100.00
56070;BME280;41944;52.078;-0.058;2023-04-21T01:44:55;101454.08;;;7.42;100.00
56070;BME280;41944;52.078;-0.058;2023-04-21T01:47:23;101447.05;;;7.74;99.66
56070;BME280;41944;52.078;-0.058;2023-04-21T01:49:50;101448.23;;;7.52;100.00
56070;BME280;41944;52.078;-0.058;2023-04-21T01:52:17;101441.15;;;7.45;100.00
56070;BME280;41944;52.078;-0.058;2023-04-21T01:54:44;101439.01;;;7.54;100.00
56070;BME280;41944;52.078;-0.058;2023-04-21T01:57:12;101435.37;;;7.38;100.00
56070;BME280;41944;52.078;-0.058;2023-04-21T01:59:39;101429.19;;;7.26;100.00
56070;BME280;41944;52.078;-0.058;2023-04-21T02:02:06;101428.91;;;7.57;100.00
56070;BME280;41944;52.078;-0.058;2023-04-21T02:04:33;101425.62;;;7.70;100.00
56070;BME280;41944;52.078;-0.058;2023-04-21T02:07:00;101426.54;;;7.69;100.00
56070;BME280;41944;52.078;-0.058;2023-04-21T02:09:27;101426.97;;;7.67;100.00
56070;BME280;41944;52.078;-0.058;2023-04-21T02:11:54;101427.05;;;7.33;100.00
56070;BME280;41944;52.078;-0.058;2023-04-21T02:14:22;101422.31;;;7.54;100.00
56070;BME280;41944;52.078;-0.058;2023-04-21T02:16:49;101415.65;;;7.56;100.00
56070;BME280;41944;52.078;-0.058;2023-04-21T02:19:16;101413.97;;;7.49;100.00
56070;BME280;41944;52.078;-0.058;2023-04-21T02:21:43;101403.66;;;7.70;100.00
56070;BME280;41944;52.078;-0.058;2023-04-21T02:24:11;101400.21;;;7.46;100.00
56070;BME280;41944;52.078;-0.058;2023-04-21T02:26:38;101393.37;;;7.43;100.00
56070;BME280;41944;52.078;-0.058;2023-04-21T02:29:05;101384.79;;;7.56;100.00
56070;BME280;41944;52.078;-0.058;2023-04-21T02:31:32;101383.29;;;7.65;100.00
56070;BME280;41944;52.078;-0.058;2023-04-21T02:33:59;101380.64;;;7.65;100.00
56070;BME280;41944;52.078;-0.058;2023-04-21T02:36:26;101379.48;;;7.69;99.96
56070;BME280;41944;52.078;-0.058;2023-04-21T02:38:53;101374.72;;;7.56;100.00
56070;BME280;41944;52.078;-0.058;2023-04-21T02:41:20;101376.26;;;7.57;100.00
56070;BME280;41944;52.078;-0.058;2023-04-21T02:43:48;101375.20;;;7.35;100.00
56070;BME280;41944;52.078;-0.058;2023-04-21T02:46:15;101368.43;;;7.43;100.00
56070;BME280;41944;52.078;-0.058;2023-04-21T02:48:42;101361.95;;;7.38;100.00
56070;BME280;41944;52.078;-0.058;2023-04-21T02:51:11;101356.18;;;7.49;100.00
56070;BME280;41944;52.078;-0.058;2023-04-21T02:53:38;101353.83;;;7.41;100.00
56070;BME280;41944;52.078;-0.058;2023-04-21T02:56:06;101355.02;;;7.28;100.00
56070;BME280;41944;52.078;-0.058;2023-04-21T02:58:33;101348.87;;;7.33;100.00
56070;BME280;41944;52.078;-0.058;2023-04-21T03:01:01;101350.58;;;7.46;100.00
56070;BME280;41944;52.078;-0.058;2023-04-21T03:03:28;101351.37;;;7.62;100.00
56070;BME280;41944;52.078;-0.058;2023-04-21T03:05:56;101342.31;;;7.44;100.00
56070;BME280;41944;52.078;-0.058;2023-04-21T03:08:24;101339.30;;;7.60;100.00
56070;BME280;41944;52.078;-0.058;2023-04-21T03:10:51;101334.41;;;7.61;100.00
56070;BME280;41944;52.078;-0.058;2023-04-21T03:13:17;101329.66;;;7.73;100.00
56070;BME280;41944;52.078;-0.058;2023-04-21T03:15:44;101322.91;;;7.82;100.00
56070;BME280;41944;52.078;-0.058;2023-04-21T03:18:12;101325.51;;;7.60;100.00
56070;BME280;41944;52.078;-0.058;2023-04-21T03:20:39;101328.31;;;7.68;100.00
56070;BME280;41944;52.078;-0.058;2023-04-21T03:23:06;101323.77;;;7.83;100.00
56070;BME280;41944;52.078;-0.058;2023-04-21T03:25:33;101323.69;;;7.83;100.00
56070;BME280;41944;52.078;-0.058;2023-04-21T03:28:00;101323.28;;;7.72;100.00
56070;BME280;41944;52.078;-0.058;2023-04-21T03:30:27;101313.46;;;7.64;100.00
56070;BME280;41944;52.078;-0.058;2023-04-21T03:32:54;101305.66;;;7.60;100.00
56070;BME280;41944;52.078;-0.058;2023-04-21T03:35:22;101297.16;;;7.95;100.00
56070;BME280;41944;52.078;-0.058;2023-04-21T03:37:49;101288.74;;;7.75;100.00
56070;BME280;41944;52.078;-0.058;2023-04-21T03:40:16;101287.47;;;7.73;100.00
56070;BME280;41944;52.078;-0.058;2023-04-21T03:42:43;101289.37;;;7.87;100.00
56070;BME280;41944;52.078;-0.058;2023-04-21T03:45:10;101288.91;;;8.07;100.00
56070;BME280;41944;52.078;-0.058;2023-04-21T03:47:37;101283.96;;;7.91;100.00
56070;BME280;41944;52.078;-0.058;2023-04-21T03:50:06;101274.53;;;8.08;100.00
56070;BME280;41944;52.078;-0.058;2023-04-21T03:52:33;101267.28;;;8.04;100.00
56070;BME280;41944;52.078;-0.058;2023-04-21T03:55:00;101271.86;;;7.87;100.00
56070;BME280;41944;52.078;-0.058;2023-04-21T03:57:27;101264.64;;;8.00;100.00
56070;BME280;41944;52.078;-0.058;2023-04-21T03:59:54;101253.96;;;7.90;100.00
56070;BME280;41944;52.078;-0.058;2023-04-21T04:02:21;101251.34;;;7.71;100.00
56070;BME280;41944;52.078;-0.058;2023-04-21T04:04:48;101250.53;;;7.89;100.00
56070;BME280;41944;52.078;-0.058;2023-04-21T04:07:15;101250.06;;;8.16;100.00
56070;BME280;41944;52.078;-0.058;2023-04-21T04:09:42;101242.38;;;8.22;100.00
56070;BME280;41944;52.078;-0.058;2023-04-21T04:12:09;101236.81;;;8.19;100.00
56070;BME280;41944;52.078;-0.058;2023-04-21T04:14:37;101244.17;;;8.26;100.00
56070;BME280;41944;52.078;-0.058;2023-04-21T04:17:04;101244.16;;;8.40;100.00
56070;BME280;41944;52.078;-0.058;2023-04-21T04:19:31;101238.15;;;8.32;100.00
56070;BME280;41944;52.078;-0.058;2023-04-21T04:21:58;101235.34;;;8.31;100.00
56070;BME280;41944;52.078;-0.058;2023-04-21T04:24:25;101224.36;;;8.36;100.00
56070;BME280;41944;52.078;-0.058;2023-04-21T04:26:53;101224.12;;;8.51;100.00
56070;BME280;41944;52.078;-0.058;2023-04-21T04:29:20;101222.05;;;8.30;100.00
56070;BME280;41944;52.078;-0.058;2023-04-21T04:31:48;101215.75;;;8.29;100.00
56070;BME280;41944;52.078;-0.058;2023-04-21T04:34:15;101216.31;;;8.24;100.00
56070;BME280;41944;52.078;-0.058;2023-04-21T04:36:42;101206.87;;;8.18;100.00
56070;BME280;41944;52.078;-0.058;2023-04-21T04:39:09;101204.05;;;8.37;100.00
56070;BME280;41944;52.078;-0.058;2023-04-21T04:41:36;101199.23;;;8.28;100.00
56070;BME280;41944;52.078;-0.058;2023-04-21T04:44:04;101206.81;;;8.10;100.00
56070;BME280;41944;52.078;-0.058;2023-04-21T04:46:31;101205.95;;;8.21;100.00
56070;BME280;41944;52.078;-0.058;2023-04-21T04:48:58;101203.60;;;8.45;100.00
56070;BME280;41944;52.078;-0.058;2023-04-21T04:51:25;101194.50;;;8.51;100.00
56070;BME280;41944;52.078;-0.058;2023-04-21T04:53:53;101195.03;;;8.39;100.00
56070;BME280;41944;52.078;-0.058;2023-04-21T04:56:19;101195.18;;;8.43;100.00
56070;BME280;41944;52.078;-0.058;2023-04-21T04:58:46;101185.14;;;8.61;100.00
56070;BME280;41944;52.078;-0.058;2023-04-21T05:01:13;101181.02;;;8.39;100.00
56070;BME280;41944;52.078;-0.058;2023-04-21T05:03:41;101177.27;;;8.42;100.00
56070;BME280;41944;52.078;-0.058;2023-04-21T05:06:08;101176.77;;;8.51;100.00
56070;BME280;41944;52.078;-0.058;2023-04-21T05:08:36;101179.41;;;8.59;100.00
56070;BME280;41944;52.078;-0.058;2023-04-21T05:11:03;101176.46;;;8.50;100.00
56070;BME280;41944;52.078;-0.058;2023-04-21T05:13:30;101175.25;;;8.31;100.00
56070;BME280;41944;52.078;-0.058;2023-04-21T05:15:57;101177.61;;;8.12;100.00
56070;BME280;41944;52.078;-0.058;2023-04-21T05:18:24;101182.48;;;8.17;100.00
56070;BME280;41944;52.078;-0.058;2023-04-21T05:20:51;101181.53;;;8.34;100.00
56070;BME280;41944;52.078;-0.058;2023-04-21T05:23:19;101170.88;;;8.43;100.00
56070;BME280;41944;52.078;-0.058;2023-04-21T05:25:46;101167.08;;;8.41;100.00
56070;BME280;41944;52.078;-0.058;2023-04-21T05:28:13;101164.64;;;8.56;100.00
56070;BME280;41944;52.078;-0.058;2023-04-21T05:30:40;101161.85;;;8.28;100.00
56070;BME280;41944;52.078;-0.058;2023-04-21T05:33:07;101157.99;;;8.46;100.00
56070;BME280;41944;52.078;-0.058;2023-04-21T05:35:34;101150.78;;;8.62;100.00
56070;BME280;41944;52.078;-0.058;2023-04-21T05:38:02;101146.24;;;8.81;100.00
56070;BME280;41944;52.078;-0.058;2023-04-21T05:40:29;101149.20;;;8.73;100.00
56070;BME280;41944;52.078;-0.058;2023-04-21T05:42:56;101155.78;;;8.72;100.00
56070;BME280;41944;52.078;-0.058;2023-04-21T05:45:23;101147.60;;;8.73;100.00
56070;BME280;41944;52.078;-0.058;2023-04-21T05:47:50;101147.60;;;8.64;100.00
56070;BME280;41944;52.078;-0.058;2023-04-21T05:50:17;101147.82;;;8.61;100.00
56070;BME280;41944;52.078;-0.058;2023-04-21T05:52:44;101140.83;;;8.75;100.00
56070;BME280;41944;52.078;-0.058;2023-04-21T05:55:11;101138.72;;;8.67;100.00
56070;BME280;41944;52.078;-0.058;2023-04-21T05:57:38;101133.77;;;8.68;100.00
56070;BME280;41944;52.078;-0.058;2023-04-21T06:00:06;101138.40;;;8.80;100.00
56070;BME280;41944;52.078;-0.058;2023-04-21T06:02:34;101134.13;;;8.58;100.00
56070;BME280;41944;52.078;-0.058;2023-04-21T06:05:01;101127.89;;;8.64;100.00
56070;BME280;41944;52.078;-0.058;2023-04-21T06:07:28;101129.18;;;8.77;100.00
56070;BME280;41944;52.078;-0.058;2023-04-21T06:09:56;101128.86;;;8.82;100.00
56070;BME280;41944;52.078;-0.058;2023-04-21T06:12:22;101129.71;;;8.91;100.00
56070;BME280;41944;52.078;-0.058;2023-04-21T06:14:50;101120.55;;;8.73;100.00
56070;BME280;41944;52.078;-0.058;2023-04-21T06:17:16;101116.21;;;8.65;100.00
56070;BME280;41944;52.078;-0.058;2023-04-21T06:19:43;101120.54;;;8.84;100.00
56070;BME280;41944;52.078;-0.058;2023-04-21T06:22:11;101121.25;;;8.85;100.00
56070;BME280;41944;52.078;-0.058;2023-04-21T06:24:38;101124.63;;;8.82;100.00
56070;BME280;41944;52.078;-0.058;2023-04-21T06:27:09;101118.72;;;8.86;100.00
56070;BME280;41944;52.078;-0.058;2023-04-21T06:29:37;101114.61;;;8.98;100.00
56070;BME280;41944;52.078;-0.058;2023-04-21T06:32:04;101105.55;;;9.12;100.00
56070;BME280;41944;52.078;-0.058;2023-04-21T06:34:31;101099.20;;;8.97;100.00
56070;BME280;41944;52.078;-0.058;2023-04-21T06:36:58;101095.86;;;8.89;100.00
56070;BME280;41944;52.078;-0.058;2023-04-21T06:39:25;101095.05;;;8.89;100.00
56070;BME280;41944;52.078;-0.058;2023-04-21T06:41:52;101090.55;;;8.94;99.76
56070;BME280;41944;52.078;-0.058;2023-04-21T06:44:20;101084.09;;;9.16;98.47
56070;BME280;41944;52.078;-0.058;2023-04-21T06:46:47;101085.88;;;9.24;99.58
56070;BME280;41944;52.078;-0.058;2023-04-21T06:49:14;101083.13;;;9.24;99.69
56070;BME280;41944;52.078;-0.058;2023-04-21T06:51:41;101082.21;;;9.13;100.00
56070;BME280;41944;52.078;-0.058;2023-04-21T06:54:08;101079.54;;;9.06;100.00
56070;BME280;41944;52.078;-0.058;2023-04-21T06:56:35;101075.95;;;9.23;100.00
56070;BME280;41944;52.078;-0.058;2023-04-21T06:59:02;101070.24;;;9.29;100.00
56070;BME280;41944;52.078;-0.058;2023-04-21T07:01:28;101067.94;;;9.24;99.26
56070;BME280;41944;52.078;-0.058;2023-04-21T07:03:56;101066.67;;;9.25;99.21
56070;BME280;41944;52.078;-0.058;2023-04-21T07:06:23;101063.81;;;9.29;99.59
56070;BME280;41944;52.078;-0.058;2023-04-21T07:08:50;101058.61;;;9.21;100.00
56070;BME280;41944;52.078;-0.058;2023-04-21T07:11:17;101055.78;;;9.23;100.00
56070;BME280;41944;52.078;-0.058;2023-04-21T07:13:45;101048.42;;;9.24;99.41
56070;BME280;41944;52.078;-0.058;2023-04-21T07:16:12;101043.80;;;9.24;99.23
56070;BME280;41944;52.078;-0.058;2023-04-21T07:18:39;101039.36;;;9.18;99.59
56070;BME280;41944;52.078;-0.058;2023-04-21T07:21:06;101038.53;;;9.25;100.00
56070;BME280;41944;52.078;-0.058;2023-04-21T07:23:33;101037.25;;;9.17;100.00
56070;BME280;41944;52.078;-0.058;2023-04-21T07:26:00;101031.09;;;9.24;100.00
56070;BME280;41944;52.078;-0.058;2023-04-21T07:28:28;101030.86;;;9.14;100.00
56070;BME280;41944;52.078;-0.058;2023-04-21T07:30:54;101027.51;;;9.15;100.00
56070;BME280;41944;52.078;-0.058;2023-04-21T07:33:21;101026.28;;;9.15;100.00
56070;BME280;41944;52.078;-0.058;2023-04-21T07:35:48;101023.04;;;9.14;100.00
56070;BME280;41944;52.078;-0.058;2023-04-21T07:38:16;101018.78;;;9.20;100.00
56070;BME280;41944;52.078;-0.058;2023-04-21T07:40:42;101009.06;;;9.44;100.00
56070;BME280;41944;52.078;-0.058;2023-04-21T07:43:09;101006.61;;;9.41;100.00
56070;BME280;41944;52.078;-0.058;2023-04-21T07:45:37;101001.88;;;9.36;100.00
56070;BME280;41944;52.078;-0.058;2023-04-21T07:48:03;101007.27;;;9.33;100.00
56070;BME280;41944;52.078;-0.058;2023-04-21T07:50:31;101004.49;;;9.35;99.73
56070;BME280;41944;52.078;-0.058;2023-04-21T07:52:58;101003.94;;;9.40;98.06
56070;BME280;41944;52.078;-0.058;2023-04-21T07:55:25;101010.35;;;9.52;98.55
56070;BME280;41944;52.078;-0.058;2023-04-21T07:57:52;101012.27;;;9.39;99.72
56070;BME280;41944;52.078;-0.058;2023-04-21T08:00:20;101015.73;;;9.33;99.70
56070;BME280;41944;52.078;-0.058;2023-04-21T08:02:47;101011.61;;;9.37;100.00
56070;BME280;41944;52.078;-0.058;2023-04-21T08:05:15;101016.57;;;9.20;100.00
56070;BME280;41944;52.078;-0.058;2023-04-21T08:07:41;101012.00;;;9.16;100.00
56070;BME280;41944;52.078;-0.058;2023-04-21T08:10:09;101008.57;;;9.19;100.00
56070;BME280;41944;52.078;-0.058;2023-04-21T08:12:36;101005.74;;;9.40;100.00
56070;BME280;41944;52.078;-0.058;2023-04-21T08:15:05;101003.42;;;9.60;100.00
56070;BME280;41944;52.078;-0.058;2023-04-21T08:17:32;101004.24;;;9.86;100.00
56070;BME280;41944;52.078;-0.058;2023-04-21T08:20:00;101008.16;;;9.93;97.77
56070;BME280;41944;52.078;-0.058;2023-04-21T08:22:27;101009.39;;;10.00;98.03
56070;BME280;41944;52.078;-0.058;2023-04-21T08:24:54;101006.17;;;10.14;97.72
56070;BME280;41944;52.078;-0.058;2023-04-21T08:27:21;101000.84;;;10.39;93.57
56070;BME280;41944;52.078;-0.058;2023-04-21T08:29:49;101001.01;;;10.62;94.22
56070;BME280;41944;52.078;-0.058;2023-04-21T08:32:16;101002.50;;;10.60;94.71
56070;BME280;41944;52.078;-0.058;2023-04-21T08:34:43;101001.07;;;10.73;90.65
56070;BME280;41944;52.078;-0.058;2023-04-21T08:37:09;101001.07;;;10.88;89.67
56070;BME280;41944;52.078;-0.058;2023-04-21T08:39:36;101002.98;;;10.88;90.61
56070;BME280;41944;52.078;-0.058;2023-04-21T08:42:03;101002.92;;;10.84;90.90
56070;BME280;41944;52.078;-0.058;2023-04-21T08:44:30;101002.66;;;10.93;89.76
56070;BME280;41944;52.078;-0.058;2023-04-21T08:46:58;101001.19;;;11.03;87.99
56070;BME280;41944;52.078;-0.058;2023-04-21T08:49:29;100998.13;;;10.91;89.47
56070;BME280;41944;52.078;-0.058;2023-04-21T08:51:59;100994.28;;;11.05;87.99
56070;BME280;41944;52.078;-0.058;2023-04-21T08:54:26;100993.45;;;10.91;88.06
56070;BME280;41944;52.078;-0.058;2023-04-21T08:56:53;100994.72;;;10.88;89.89
56070;BME280;41944;52.078;-0.058;2023-04-21T08:59:20;100994.60;;;10.81;91.61
56070;BME280;41944;52.078;-0.058;2023-04-21T09:02:19;100992.28;;;10.87;90.22
56070;BME280;41944;52.078;-0.058;2023-04-21T09:04:46;100989.65;;;10.48;92.86
56070;BME280;41944;52.078;-0.058;2023-04-21T09:07:31;100991.27;;;10.25;93.21
56070;BME280;41944;52.078;-0.058;2023-04-21T09:09:59;100987.59;;;10.38;95.00
56070;BME280;41944;52.078;-0.058;2023-04-21T09:12:28;100986.42;;;10.46;94.91
56070;BME280;41944;52.078;-0.058;2023-04-21T09:14:56;100988.24;;;10.39;95.20
56070;BME280;41944;52.078;-0.058;2023-04-21T09:17:30;100990.63;;;10.61;92.90
56070;BME280;41944;52.078;-0.058;2023-04-21T09:20:12;100995.20;;;10.55;93.97
56070;BME280;41944;52.078;-0.058;2023-04-21T09:22:39;101006.29;;;10.56;94.71
56070;BME280;41944;52.078;-0.058;2023-04-21T09:25:07;100999.81;;;10.48;97.43
56070;BME280;41944;52.078;-0.058;2023-04-21T09:27:35;101009.60;;;10.55;95.41
56070;BME280;41944;52.078;-0.058;2023-04-21T09:30:03;101009.03;;;10.50;95.41
56070;BME280;41944;52.078;-0.058;2023-04-21T09:32:35;101006.80;;;10.46;95.14
56070;BME280;41944;52.078;-0.058;2023-04-21T09:35:02;101004.39;;;10.43;97.89
56070;BME280;41944;52.078;-0.058;2023-04-21T09:37:32;100997.83;;;10.58;97.21
56070;BME280;41944;52.078;-0.058;2023-04-21T09:39:59;100994.87;;;10.79;97.19
56070;BME280;41944;52.078;-0.058;2023-04-21T09:42:28;100996.26;;;11.02;95.08
56070;BME280;41944;52.078;-0.058;2023-04-21T09:44:55;100996.54;;;11.15;92.24
56070;BME280;41944;52.078;-0.058;2023-04-21T09:47:23;100989.19;;;11.23;92.71
56070;BME280;41944;52.078;-0.058;2023-04-21T09:49:53;100988.39;;;11.31;92.39
56070;BME280;41944;52.078;-0.058;2023-04-21T09:52:20;100994.62;;;11.45;91.22
56070;BME280;41944;52.078;-0.058;2023-04-21T09:54:50;100995.40;;;11.40;90.13
56070;BME280;41944;52.078;-0.058;2023-04-21T09:57:20;100995.49;;;11.50;88.71
56070;BME280;41944;52.078;-0.058;2023-04-21T09:59:55;100991.31;;;11.61;89.19
56070;BME280;41944;52.078;-0.058;2023-04-21T10:02:29;100981.84;;;11.53;87.98
56070;BME280;41944;52.078;-0.058;2023-04-21T10:04:57;100989.91;;;11.68;88.75
56070;BME280;41944;52.078;-0.058;2023-04-21T10:07:25;100985.46;;;11.79;88.86
56070;BME280;41944;52.078;-0.058;2023-04-21T10:09:53;100988.04;;;11.79;88.09
56070;BME280;41944;52.078;-0.058;2023-04-21T10:12:26;100984.99;;;11.81;88.70
56070;BME280;41944;52.078;-0.058;2023-04-21T10:14:54;100982.16;;;11.87;85.82
56070;BME280;41944;52.078;-0.058;2023-04-21T10:17:23;100980.98;;;11.94;84.75
56070;BME280;41944;52.078;-0.058;2023-04-21T10:19:51;100982.43;;;12.08;85.95
56070;BME280;41944;52.078;-0.058;2023-04-21T10:22:29;100985.83;;;12.38;86.08
56070;BME280;41944;52.078;-0.058;2023-04-21T10:24:59;100980.65;;;12.63;84.82
56070;BME280;41944;52.078;-0.058;2023-04-21T10:27:34;100983.93;;;12.77;82.88
56070;BME280;41944;52.078;-0.058;2023-04-21T10:30:18;100978.70;;;12.60;80.55
56070;BME280;41944;52.078;-0.058;2023-04-21T10:32:45;100975.01;;;12.63;81.79
56070;BME280;41944;52.078;-0.058;2023-04-21T10:35:13;100973.95;;;12.29;80.48
56070;BME280;41944;52.078;-0.058;2023-04-21T10:37:40;100973.26;;;12.29;79.77
56070;BME280;41944;52.078;-0.058;2023-04-21T10:40:32;100971.61;;;12.24;81.32
56070;BME280;41944;52.078;-0.058;2023-04-21T10:43:01;100970.02;;;12.19;79.86
56070;BME280;41944;52.078;-0.058;2023-04-21T10:45:29;100970.79;;;12.05;80.74
56070;BME280;41944;52.078;-0.058;2023-04-21T10:47:59;100970.39;;;12.00;81.77
56070;BME280;41944;52.078;-0.058;2023-04-21T10:50:28;100970.02;;;12.05;81.05
56070;BME280;41944;52.078;-0.058;2023-04-21T10:52:58;100971.62;;;11.92;79.81
56070;BME280;41944;52.078;-0.058;2023-04-21T10:55:28;100969.14;;;11.80;80.73
56070;BME280;41944;52.078;-0.058;2023-04-21T10:57:56;100978.43;;;11.84;82.40
56070;BME280;41944;52.078;-0.058;2023-04-21T11:00:23;100977.89;;;11.70;78.37
56070;BME280;41944;52.078;-0.058;2023-04-21T11:02:55;100976.69;;;11.61;80.49
56070;BME280;41944;52.078;-0.058;2023-04-21T11:05:33;100974.78;;;11.69;80.90
56070;BME280;41944;52.078;-0.058;2023-04-21T11:08:09;100974.86;;;11.84;79.01
56070;BME280;41944;52.078;-0.058;2023-04-21T11:10:47;100972.71;;;11.90;77.01
56070;BME280;41944;52.078;-0.058;2023-04-21T11:13:14;100971.08;;;11.95;76.83
56070;BME280;41944;52.078;-0.058;2023-04-21T11:15:58;100970.62;;;11.87;76.79
56070;BME280;41944;52.078;-0.058;2023-04-21T11:18:42;100967.44;;;11.76;75.88
56070;BME280;41944;52.078;-0.058;2023-04-21T11:21:12;100962.04;;;11.85;77.59
56070;BME280;41944;52.078;-0.058;2023-04-21T11:23:40;100958.79;;;11.93;78.30
56070;BME280;41944;52.078;-0.058;2023-04-21T11:26:07;100960.42;;;12.05;77.80
56070;BME280;41944;52.078;-0.058;2023-04-21T11:28:34;100963.63;;;12.14;78.73
56070;BME280;41944;52.078;-0.058;2023-04-21T11:31:01;100966.58;;;12.09;79.81
56070;BME280;41944;52.078;-0.058;2023-04-21T11:33:29;100970.25;;;12.17;79.52
56070;BME280;41944;52.078;-0.058;2023-04-21T11:36:03;100972.17;;;12.17;78.24
56070;BME280;41944;52.078;-0.058;2023-04-21T11:38:36;100966.47;;;12.17;79.11
56070;BME280;41944;52.078;-0.058;2023-04-21T11:41:04;100966.17;;;12.23;79.00
56070;BME280;41944;52.078;-0.058;2023-04-21T11:43:31;100968.08;;;12.39;78.56
56070;BME280;41944;52.078;-0.058;2023-04-21T11:46:11;100965.26;;;12.44;76.67
56070;BME280;41944;52.078;-0.058;2023-04-21T11:48:38;100962.99;;;12.49;75.26
56070;BME280;41944;52.078;-0.058;2023-04-21T11:51:05;100962.52;;;12.54;75.43
56070;BME280;41944;52.078;-0.058;2023-04-21T11:53:32;100961.31;;;12.45;76.35
56070;BME280;41944;52.078;-0.058;2023-04-21T11:55:59;100957.53;;;12.44;74.08
56070;BME280;41944;52.078;-0.058;2023-04-21T11:58:26;100956.16;;;12.29;74.10
56070;BME280;41944;52.078;-0.058;2023-04-21T12:00:53;100951.54;;;12.07;73.61
56070;BME280;41944;52.078;-0.058;2023-04-21T12:03:19;100951.43;;;12.03;75.76
56070;BME280;41944;52.078;-0.058;2023-04-21T12:05:47;100952.87;;;11.88;76.47
56070;BME280;41944;52.078;-0.058;2023-04-21T12:08:14;100951.54;;;11.86;77.30
56070;BME280;41944;52.078;-0.058;2023-04-21T12:10:44;100953.45;;;11.95;78.04
56070;BME280;41944;52.078;-0.058;2023-04-21T12:13:11;100954.86;;;12.07;77.61
56070;BME280;41944;52.078;-0.058;2023-04-21T12:15:38;100957.90;;;12.09;76.58
56070;BME280;41944;52.078;-0.058;2023-04-21T12:18:11;100957.56;;;12.26;76.56
56070;BME280;41944;52.078;-0.058;2023-04-21T12:20:38;100958.56;;;12.59;76.80
56070;BME280;41944;52.078;-0.058;2023-04-21T12:23:14;100954.98;;;12.94;74.62
56070;BME280;41944;52.078;-0.058;2023-04-21T12:25:41;100945.13;;;13.22;73.33
56070;BME280;41944;52.078;-0.058;2023-04-21T12:28:08;100937.90;;;13.41;71.04
56070;BME280;41944;52.078;-0.058;2023-04-21T12:30:35;100943.77;;;13.45;70.94
56070;BME280;41944;52.078;-0.058;2023-04-21T12:33:01;100942.84;;;13.48;69.52
56070;BME280;41944;52.078;-0.058;2023-04-21T12:35:28;100948.37;;;13.33;69.75
56070;BME280;41944;52.078;-0.058;2023-04-21T12:37:56;100951.97;;;13.24;69.16
56070;BME280;41944;52.078;-0.058;2023-04-21T12:40:22;100976.17;;;12.86;73.32
56070;BME280;41944;52.078;-0.058;2023-04-21T12:42:49;100982.73;;;12.49;78.45
56070;BME280;41944;52.078;-0.058;2023-04-21T12:45:17;100975.79;;;12.32;82.35